Auburntown, Tennessee
Current Conditions -  °F | °C
As of 6:53 AM on Monday 24 Nov 2014 (Local Time) from KBNA Reporting Station
Scattered Clouds Scattered Clouds  
Wind Chill: 61°   Ceiling: Unl
Heat Index: 61°   Visibility: 10mi
Dew Point: 49°   Wind: 18mph
Humidity: 64%   Direction: 210°SSW
Pressure: 29.56"   Gusts: 28mph
Location:  35.95°N, 86.1°W
Report Text: KBNA 241253Z 21016G24KT 10SM FEW039 SCT045 16/09 A2956 RMK AO2 PK WND 20026/1238 SLP008 T01610094 $
Loading
Personal Weather Stations






























Interactive Weather Map New forecast layout! Learn more

10-Day Weather Forecast

Advertisements
Track Severe Weather on mobile